• Join FlightAware (Why Join?)
  • Login
  • US Flag 
Rudolph Flight #1: Arrived! 
06:04PM EST


 

Airport Tracker/Info


-or-


 

Live Flight TrackerFlight Track Log ✈ N269C ✈ 24-Jul-2013 ✈ KCIC - 3S8

Flight Track Log - Related Links

Times and Time Zones

All times are in EDT time to prevent confusion due to time zone crossing. See the N269C flight status page for this flight to view local times or setup timezone preferences in your user account.

Time Position Orientation Groundspeed Altitude Reporting Facility
EDT Latitude Longitude Course Direction KTS MPH feet Rate Location/Type
05:02PM 39.8336 -121.8506 334° Northwest 131 151 2,900  Level Oakland Center
05:03PM 39.8675 -121.8725 334° Northwest 133 153 3,800 840 Climbing Oakland Center
05:04PM 39.9042 -121.8911 339° North 137 158 4,700 840 Climbing Oakland Center
05:05PM 39.9419 -121.9125 337° Northwest 144 166 5,600 900 Climbing Oakland Center
05:06PM 39.9867 -121.9358 338° Northwest 145 167 6,600 840 Climbing Oakland Center
05:07PM 40.0250 -121.9572 337° Northwest 150 173 7,400 720 Climbing Oakland Center
05:08PM 40.0636 -121.9781 338° Northwest 150 173 8,200 780 Climbing Oakland Center
05:10PM 40.1019 -121.9992 337° Northwest 151 174 9,100 780 Climbing Oakland Center
05:11PM 40.1403 -122.0197 338° Northwest 150 173 9,900 780 Climbing Oakland Center
05:12PM 40.1789 -122.0422 336° Northwest 152 175 10,800 900 Climbing Oakland Center
05:13PM 40.2283 -122.0672 339° North 158 182 11,800 780 Climbing Oakland Center
05:14PM 40.2708 -122.0914 337° Northwest 164 189 12,500 660 Climbing Oakland Center
05:15PM 40.3139 -122.1153 337° Northwest 168 193 13,200 660 Climbing Oakland Center
05:16PM 40.3567 -122.1403 336° Northwest 169 194 13,900 720 Climbing Oakland Center
05:17PM 40.4006 -122.1647 337° Northwest 172 198 14,700 720 Climbing Oakland Center
05:18PM 40.4458 -122.1906 337° Northwest 176 203 15,400 540 Climbing Oakland Center
05:19PM 40.5022 -122.2217 337° Northwest 183 211 15,900 240 Climbing Oakland Center
05:20PM 40.5539 -122.2506 337° Northwest 200 230 15,900  Level Oakland Center
05:21PM 40.6042 -122.2794 336° Northwest 198 228 15,900  Level Oakland Center
05:22PM 40.6550 -122.3078 337° Northwest 199 229 15,900  Level Oakland Center
05:23PM 40.7064 -122.3358 338° Northwest 200 230 15,900  Level Oakland Center
05:24PM 40.7575 -122.3653 336° Northwest 201 231 15,900  Level Oakland Center
05:25PM 40.8200 -122.4006 337° Northwest 204 235 15,900  Level Oakland Center
05:26PM 40.8714 -122.4297 337° Northwest 203 234 15,900  Level Oakland Center
05:27PM 40.9225 -122.4594 336° Northwest 202 232 15,900  Level Oakland Center
05:28PM 40.9750 -122.4881 338° Northwest 204 235 15,900  Level Oakland Center
05:29PM 41.0256 -122.5192 335° Northwest 202 232 15,900  Level Oakland Center
05:30PM 41.0767 -122.5469 338° Northwest 200 230 15,900  Level Oakland Center
05:31PM 41.1278 -122.5772 336° Northwest 202 232 15,900  Level Oakland Center
05:32PM 41.1786 -122.6058 337° Northwest 200 230 16,000  Climbing Oakland Center
05:33PM 41.2292 -122.6364 336° Northwest 200 230 16,000  Level Seattle Center
05:34PM 41.2811 -122.6647 338° Northwest 200 230 16,000  Level Seattle Center
05:35PM 41.3319 -122.6950 336° Northwest 201 231 16,000 -60 Level Seattle Center
05:36PM 41.3842 -122.7250 337° Northwest 203 234 15,900 -60 Descending Seattle Center
05:37PM 41.4417 -122.7589 336° Northwest 203 234 15,900  Level Seattle Center
05:38PM 41.4942 -122.7872 338° Northwest 204 235 15,900  Level Seattle Center
05:39PM 41.5469 -122.8169 337° Northwest 205 236 15,900 -60 Level Seattle Center
05:40PM 41.5994 -122.8469 337° Northwest 206 237 15,800 -360 Descending Seattle Center
05:41PM 41.6550 -122.8792 337° Northwest 215 247 15,200 -660 Descending Seattle Center
05:42PM 41.7128 -122.9128 337° Northwest 221 254 14,500 -720 Descending Seattle Center
05:43PM 41.7681 -122.9447 337° Northwest 216 249 13,800 -720 Descending Seattle Center
05:44PM 41.8250 -122.9781 336° Northwest 221 254 13,100 -780 Descending Seattle Center
05:45PM 41.8792 -123.0092 337° Northwest 213 245 12,300 -840 Descending Seattle Center
05:46PM 41.9344 -123.0417 336° Northwest 217 250 11,400 -1,020 Descending Seattle Center
05:47PM 41.9989 -123.0808 336° Northwest 213 245 10,300 -1,080 Descending Seattle Center
05:48PM 42.0528 -123.1103 338° Northwest 209 241 9,300 -1,020 Descending Seattle Center
05:49PM 42.1019 -123.1417 335° Northwest 200 230 8,300 -960 Descending Seattle Center
05:50PM 42.1503 -123.1717 335° Northwest 193 222 7,400 -960 Descending Seattle Center
05:51PM 42.1994 -123.2008 336° Northwest 193 222 6,400 -660 Descending Seattle Center
05:52PM 42.2450 -123.2256 338° Northwest 193 222 6,100 -300 Descending Seattle Center